sensor_id;sensor_type;location;lat;lon;timestamp;temperature;humidity
12233;DHT22;6179;51.748;8.728;2023-02-11T00:04:09;6.60;98.30
12233;DHT22;6179;51.748;8.728;2023-02-11T00:10:10;6.60;98.30
12233;DHT22;6179;51.748;8.728;2023-02-11T00:16:16;6.70;98.30
12233;DHT22;6179;51.748;8.728;2023-02-11T00:22:19;6.50;98.30
12233;DHT22;6179;51.748;8.728;2023-02-11T00:28:20;6.40;98.30
12233;DHT22;6179;51.748;8.728;2023-02-11T00:34:21;6.30;98.30
12233;DHT22;6179;51.748;8.728;2023-02-11T00:40:22;6.40;98.30
12233;DHT22;6179;51.748;8.728;2023-02-11T00:46:23;6.50;98.30
12233;DHT22;6179;51.748;8.728;2023-02-11T00:52:24;6.60;98.30
12233;DHT22;6179;51.748;8.728;2023-02-11T00:58:25;6.50;98.30
12233;DHT22;6179;51.748;8.728;2023-02-11T01:04:26;6.30;98.30
12233;DHT22;6179;51.748;8.728;2023-02-11T01:10:27;6.30;98.30
12233;DHT22;6179;51.748;8.728;2023-02-11T01:16:28;6.20;98.30
12233;DHT22;6179;51.748;8.728;2023-02-11T01:22:29;6.20;98.30
12233;DHT22;6179;51.748;8.728;2023-02-11T01:28:30;6.20;98.30
12233;DHT22;6179;51.748;8.728;2023-02-11T01:34:32;6.00;98.30
12233;DHT22;6179;51.748;8.728;2023-02-11T01:40:33;6.10;98.30
12233;DHT22;6179;51.748;8.728;2023-02-11T01:46:36;6.30;98.30
12233;DHT22;6179;51.748;8.728;2023-02-11T01:52:39;6.10;98.30
12233;DHT22;6179;51.748;8.728;2023-02-11T01:58:42;6.20;98.30
12233;DHT22;6179;51.748;8.728;2023-02-11T02:04:52;6.20;98.30
12233;DHT22;6179;51.748;8.728;2023-02-11T02:10:59;6.10;98.30
12233;DHT22;6179;51.748;8.728;2023-02-11T02:17:00;6.20;98.30
12233;DHT22;6179;51.748;8.728;2023-02-11T02:36:21;5.60;98.30
12233;DHT22;6179;51.748;8.728;2023-02-11T02:42:31;5.60;98.30
12233;DHT22;6179;51.748;8.728;2023-02-11T02:48:32;5.60;98.30
12233;DHT22;6179;51.748;8.728;2023-02-11T03:13:45;5.60;98.30
12233;DHT22;6179;51.748;8.728;2023-02-11T03:19:49;5.50;98.30
12233;DHT22;6179;51.748;8.728;2023-02-11T03:25:58;5.60;98.30
12233;DHT22;6179;51.748;8.728;2023-02-11T03:32:22;5.70;98.30
12233;DHT22;6179;51.748;8.728;2023-02-11T03:38:32;5.50;98.30
12233;DHT22;6179;51.748;8.728;2023-02-11T03:44:40;5.60;98.30
12233;DHT22;6179;51.748;8.728;2023-02-11T03:50:46;5.60;98.30
12233;DHT22;6179;51.748;8.728;2023-02-11T03:56:52;5.60;98.30
12233;DHT22;6179;51.748;8.728;2023-02-11T04:02:55;5.80;98.30
12233;DHT22;6179;51.748;8.728;2023-02-11T04:08:56;5.70;98.30
12233;DHT22;6179;51.748;8.728;2023-02-11T04:14:57;5.60;98.30
12233;DHT22;6179;51.748;8.728;2023-02-11T04:20:58;5.60;98.30
12233;DHT22;6179;51.748;8.728;2023-02-11T04:26:58;5.60;98.30
12233;DHT22;6179;51.748;8.728;2023-02-11T04:32:59;5.50;98.30
12233;DHT22;6179;51.748;8.728;2023-02-11T04:39:00;5.50;98.30
12233;DHT22;6179;51.748;8.728;2023-02-11T04:45:01;5.40;98.30
12233;DHT22;6179;51.748;8.728;2023-02-11T04:51:02;5.50;98.30
12233;DHT22;6179;51.748;8.728;2023-02-11T04:57:04;5.70;98.30
12233;DHT22;6179;51.748;8.728;2023-02-11T05:03:05;5.70;98.30
12233;DHT22;6179;51.748;8.728;2023-02-11T05:09:06;5.50;98.30
12233;DHT22;6179;51.748;8.728;2023-02-11T05:15:07;5.60;98.30
12233;DHT22;6179;51.748;8.728;2023-02-11T05:21:10;5.80;98.30
12233;DHT22;6179;51.748;8.728;2023-02-11T05:27:13;5.80;98.30
12233;DHT22;6179;51.748;8.728;2023-02-11T05:33:14;5.90;98.30
12233;DHT22;6179;51.748;8.728;2023-02-11T05:39:15;5.70;98.30
12233;DHT22;6179;51.748;8.728;2023-02-11T05:45:16;5.80;98.30
12233;DHT22;6179;51.748;8.728;2023-02-11T05:51:17;5.70;98.30
12233;DHT22;6179;51.748;8.728;2023-02-11T05:57:18;5.60;98.30
12233;DHT22;6179;51.748;8.728;2023-02-11T06:03:19;5.80;98.30
12233;DHT22;6179;51.748;8.728;2023-02-11T06:09:19;5.80;98.30
12233;DHT22;6179;51.748;8.728;2023-02-11T06:15:20;5.90;98.30
12233;DHT22;6179;51.748;8.728;2023-02-11T06:21:21;5.80;98.30
12233;DHT22;6179;51.748;8.728;2023-02-11T06:27:22;5.90;98.30
12233;DHT22;6179;51.748;8.728;2023-02-11T06:33:23;5.60;98.30
12233;DHT22;6179;51.748;8.728;2023-02-11T06:39:24;5.70;98.30
12233;DHT22;6179;51.748;8.728;2023-02-11T06:45:25;5.80;98.30
12233;DHT22;6179;51.748;8.728;2023-02-11T06:51:25;5.80;98.30
12233;DHT22;6179;51.748;8.728;2023-02-11T06:57:26;5.90;98.30
12233;DHT22;6179;51.748;8.728;2023-02-11T07:03:27;5.60;98.30
12233;DHT22;6179;51.748;8.728;2023-02-11T07:09:28;5.50;98.30
12233;DHT22;6179;51.748;8.728;2023-02-11T07:15:29;5.50;98.30
12233;DHT22;6179;51.748;8.728;2023-02-11T07:21:30;5.60;98.30
12233;DHT22;6179;51.748;8.728;2023-02-11T07:27:30;5.70;98.30
12233;DHT22;6179;51.748;8.728;2023-02-11T07:33:34;5.70;98.30
12233;DHT22;6179;51.748;8.728;2023-02-11T07:39:35;5.60;98.30
12233;DHT22;6179;51.748;8.728;2023-02-11T07:45:38;5.50;98.30
12233;DHT22;6179;51.748;8.728;2023-02-11T07:51:38;5.60;98.30
12233;DHT22;6179;51.748;8.728;2023-02-11T07:57:39;5.80;98.30
12233;DHT22;6179;51.748;8.728;2023-02-11T08:03:40;6.00;98.30
12233;DHT22;6179;51.748;8.728;2023-02-11T08:09:42;5.70;98.30
12233;DHT22;6179;51.748;8.728;2023-02-11T08:15:43;5.60;98.30
12233;DHT22;6179;51.748;8.728;2023-02-11T08:21:44;5.90;98.30
12233;DHT22;6179;51.748;8.728;2023-02-11T08:27:45;5.80;98.30
12233;DHT22;6179;51.748;8.728;2023-02-11T08:33:46;5.80;98.30
12233;DHT22;6179;51.748;8.728;2023-02-11T08:39:47;5.70;98.30
12233;DHT22;6179;51.748;8.728;2023-02-11T08:45:49;5.80;98.30
12233;DHT22;6179;51.748;8.728;2023-02-11T08:51:50;5.90;98.30
12233;DHT22;6179;51.748;8.728;2023-02-11T08:57:51;5.90;98.30
12233;DHT22;6179;51.748;8.728;2023-02-11T09:03:52;5.90;98.30
12233;DHT22;6179;51.748;8.728;2023-02-11T09:09:53;5.90;98.30
12233;DHT22;6179;51.748;8.728;2023-02-11T09:15:54;6.10;98.30
12233;DHT22;6179;51.748;8.728;2023-02-11T09:21:54;6.00;98.30
12233;DHT22;6179;51.748;8.728;2023-02-11T09:27:55;6.10;98.30
12233;DHT22;6179;51.748;8.728;2023-02-11T09:33:59;6.20;98.30
12233;DHT22;6179;51.748;8.728;2023-02-11T09:40:02;6.30;98.30
12233;DHT22;6179;51.748;8.728;2023-02-11T09:46:03;6.30;98.30
12233;DHT22;6179;51.748;8.728;2023-02-11T09:58:34;6.40;98.30
12233;DHT22;6179;51.748;8.728;2023-02-11T10:11:00;6.60;98.30
12233;DHT22;6179;51.748;8.728;2023-02-11T10:24:02;6.60;98.30
12233;DHT22;6179;51.748;8.728;2023-02-11T10:36:24;6.60;98.30
12233;DHT22;6179;51.748;8.728;2023-02-11T10:42:29;6.50;98.30
12233;DHT22;6179;51.748;8.728;2023-02-11T10:55:16;6.90;98.30
12233;DHT22;6179;51.748;8.728;2023-02-11T11:01:20;6.90;98.30
12233;DHT22;6179;51.748;8.728;2023-02-11T11:07:24;6.70;98.30
12233;DHT22;6179;51.748;8.728;2023-02-11T11:20:13;6.80;98.30
12233;DHT22;6179;51.748;8.728;2023-02-11T11:26:18;6.80;98.30
12233;DHT22;6179;51.748;8.728;2023-02-11T11:32:26;6.80;98.30
12233;DHT22;6179;51.748;8.728;2023-02-11T11:38:32;6.60;98.30
12233;DHT22;6179;51.748;8.728;2023-02-11T11:44:36;6.90;98.30
12233;DHT22;6179;51.748;8.728;2023-02-11T11:50:57;6.80;98.30
12233;DHT22;6179;51.748;8.728;2023-02-11T11:57:11;6.80;98.30
12233;DHT22;6179;51.748;8.728;2023-02-11T12:29:54;7.20;98.30
12233;DHT22;6179;51.748;8.728;2023-02-11T12:50:20;7.30;98.30
12233;DHT22;6179;51.748;8.728;2023-02-11T12:56:05;7.50;98.30
12233;DHT22;6179;51.748;8.728;2023-02-11T13:09:04;7.30;98.30
12233;DHT22;6179;51.748;8.728;2023-02-11T13:15:13;7.40;98.30
12233;DHT22;6179;51.748;8.728;2023-02-11T13:33:50;7.70;98.30
12233;DHT22;6179;51.748;8.728;2023-02-11T13:46:14;7.80;98.30
12233;DHT22;6179;51.748;8.728;2023-02-11T13:52:30;7.80;98.30
12233;DHT22;6179;51.748;8.728;2023-02-11T13:58:36;8.00;98.30
12233;DHT22;6179;51.748;8.728;2023-02-11T14:17:30;7.90;98.30
12233;DHT22;6179;51.748;8.728;2023-02-11T14:23:33;7.80;98.30
12233;DHT22;6179;51.748;8.728;2023-02-11T14:42:43;7.90;98.30
12233;DHT22;6179;51.748;8.728;2023-02-11T14:48:46;7.70;98.30
12233;DHT22;6179;51.748;8.728;2023-02-11T14:54:50;7.60;98.30
12233;DHT22;6179;51.748;8.728;2023-02-11T15:07:03;7.70;98.30
12233;DHT22;6179;51.748;8.728;2023-02-11T15:13:07;7.80;98.30
12233;DHT22;6179;51.748;8.728;2023-02-11T15:19:20;7.80;98.30
12233;DHT22;6179;51.748;8.728;2023-02-11T15:25:25;8.10;98.30
12233;DHT22;6179;51.748;8.728;2023-02-11T15:31:27;8.10;98.30
12233;DHT22;6179;51.748;8.728;2023-02-11T15:37:28;8.00;98.30
12233;DHT22;6179;51.748;8.728;2023-02-11T15:43:46;8.00;98.30
12233;DHT22;6179;51.748;8.728;2023-02-11T15:49:52;8.00;98.30
12233;DHT22;6179;51.748;8.728;2023-02-11T15:56:06;8.10;98.30
12233;DHT22;6179;51.748;8.728;2023-02-11T16:02:30;8.10;98.30
12233;DHT22;6179;51.748;8.728;2023-02-11T16:08:33;8.00;98.30
12233;DHT22;6179;51.748;8.728;2023-02-11T16:14:35;8.00;98.30
12233;DHT22;6179;51.748;8.728;2023-02-11T16:20:39;7.70;98.30
12233;DHT22;6179;51.748;8.728;2023-02-11T16:26:41;8.00;98.30
12233;DHT22;6179;51.748;8.728;2023-02-11T16:32:48;8.30;98.30
12233;DHT22;6179;51.748;8.728;2023-02-11T16:38:48;8.30;98.30
12233;DHT22;6179;51.748;8.728;2023-02-11T16:44:50;7.70;98.30
12233;DHT22;6179;51.748;8.728;2023-02-11T16:50:51;7.70;98.30
12233;DHT22;6179;51.748;8.728;2023-02-11T16:56:52;8.00;98.30
12233;DHT22;6179;51.748;8.728;2023-02-11T17:02:53;8.40;98.30
12233;DHT22;6179;51.748;8.728;2023-02-11T17:08:54;8.20;98.30
12233;DHT22;6179;51.748;8.728;2023-02-11T17:14:55;8.20;98.30
12233;DHT22;6179;51.748;8.728;2023-02-11T17:20:55;8.40;98.30
12233;DHT22;6179;51.748;8.728;2023-02-11T17:26:56;8.00;98.30
12233;DHT22;6179;51.748;8.728;2023-02-11T17:32:57;8.40;98.30
12233;DHT22;6179;51.748;8.728;2023-02-11T17:38:59;7.90;98.30
12233;DHT22;6179;51.748;8.728;2023-02-11T17:45:00;7.80;98.30
12233;DHT22;6179;51.748;8.728;2023-02-11T17:51:01;7.80;98.30
12233;DHT22;6179;51.748;8.728;2023-02-11T17:57:02;7.80;98.30
12233;DHT22;6179;51.748;8.728;2023-02-11T18:03:03;8.30;98.30
12233;DHT22;6179;51.748;8.728;2023-02-11T18:09:04;8.40;98.30
12233;DHT22;6179;51.748;8.728;2023-02-11T18:15:05;7.80;98.30
12233;DHT22;6179;51.748;8.728;2023-02-11T18:21:06;7.70;98.30
12233;DHT22;6179;51.748;8.728;2023-02-11T18:27:08;7.70;98.30
12233;DHT22;6179;51.748;8.728;2023-02-11T18:33:09;7.90;98.30
12233;DHT22;6179;51.748;8.728;2023-02-11T18:39:13;8.10;98.30
12233;DHT22;6179;51.748;8.728;2023-02-11T18:45:14;8.10;98.30
12233;DHT22;6179;51.748;8.728;2023-02-11T18:51:17;8.40;98.30
12233;DHT22;6179;51.748;8.728;2023-02-11T18:57:18;8.20;98.30
12233;DHT22;6179;51.748;8.728;2023-02-11T19:03:18;8.20;98.30
12233;DHT22;6179;51.748;8.728;2023-02-11T19:09:19;8.20;98.30
12233;DHT22;6179;51.748;8.728;2023-02-11T19:15:21;8.20;98.30
12233;DHT22;6179;51.748;8.728;2023-02-11T19:21:22;8.10;98.30
12233;DHT22;6179;51.748;8.728;2023-02-11T19:27:23;8.30;98.30
12233;DHT22;6179;51.748;8.728;2023-02-11T19:33:24;8.40;98.30
12233;DHT22;6179;51.748;8.728;2023-02-11T19:39:24;8.10;98.30
12233;DHT22;6179;51.748;8.728;2023-02-11T19:45:26;8.40;98.30
12233;DHT22;6179;51.748;8.728;2023-02-11T19:51:27;8.80;98.30
12233;DHT22;6179;51.748;8.728;2023-02-11T19:57:29;8.70;98.30
12233;DHT22;6179;51.748;8.728;2023-02-11T20:03:30;8.70;98.30
12233;DHT22;6179;51.748;8.728;2023-02-11T20:09:31;8.40;98.30
12233;DHT22;6179;51.748;8.728;2023-02-11T20:15:31;7.90;98.30
12233;DHT22;6179;51.748;8.728;2023-02-11T20:21:32;7.80;98.30
12233;DHT22;6179;51.748;8.728;2023-02-11T20:27:33;8.00;98.30
12233;DHT22;6179;51.748;8.728;2023-02-11T20:33:34;7.90;98.30
12233;DHT22;6179;51.748;8.728;2023-02-11T20:39:34;7.90;98.30
12233;DHT22;6179;51.748;8.728;2023-02-11T20:45:36;8.10;98.30
12233;DHT22;6179;51.748;8.728;2023-02-11T20:51:37;8.10;98.30
12233;DHT22;6179;51.748;8.728;2023-02-11T20:57:39;8.20;98.30
12233;DHT22;6179;51.748;8.728;2023-02-11T21:03:40;8.20;98.30
12233;DHT22;6179;51.748;8.728;2023-02-11T21:09:43;7.80;98.30
12233;DHT22;6179;51.748;8.728;2023-02-11T21:15:43;7.90;98.30
12233;DHT22;6179;51.748;8.728;2023-02-11T21:21:44;7.80;98.30
12233;DHT22;6179;51.748;8.728;2023-02-11T21:27:45;7.80;98.30
12233;DHT22;6179;51.748;8.728;2023-02-11T21:33:47;7.70;98.30
12233;DHT22;6179;51.748;8.728;2023-02-11T21:39:48;7.70;98.30
12233;DHT22;6179;51.748;8.728;2023-02-11T21:45:50;7.70;98.30
12233;DHT22;6179;51.748;8.728;2023-02-11T21:51:53;7.80;98.30
12233;DHT22;6179;51.748;8.728;2023-02-11T21:57:54;7.70;98.30
12233;DHT22;6179;51.748;8.728;2023-02-11T22:03:56;7.50;98.30
12233;DHT22;6179;51.748;8.728;2023-02-11T22:09:57;7.50;98.30
12233;DHT22;6179;51.748;8.728;2023-02-11T22:15:59;7.60;98.30
12233;DHT22;6179;51.748;8.728;2023-02-11T22:22:01;7.70;98.30
12233;DHT22;6179;51.748;8.728;2023-02-11T22:28:02;7.50;98.30
12233;DHT22;6179;51.748;8.728;2023-02-11T22:34:04;7.70;98.30
12233;DHT22;6179;51.748;8.728;2023-02-11T22:40:06;7.40;98.30
12233;DHT22;6179;51.748;8.728;2023-02-11T22:46:07;7.40;98.30
12233;DHT22;6179;51.748;8.728;2023-02-11T22:52:10;7.60;98.30
12233;DHT22;6179;51.748;8.728;2023-02-11T22:58:10;7.80;98.30
12233;DHT22;6179;51.748;8.728;2023-02-11T23:04:13;7.60;98.30
12233;DHT22;6179;51.748;8.728;2023-02-11T23:10:15;7.30;98.30
12233;DHT22;6179;51.748;8.728;2023-02-11T23:16:19;7.30;98.30
12233;DHT22;6179;51.748;8.728;2023-02-11T23:22:22;7.40;98.30
12233;DHT22;6179;51.748;8.728;2023-02-11T23:28:22;7.80;98.30
12233;DHT22;6179;51.748;8.728;2023-02-11T23:34:23;7.40;98.30
12233;DHT22;6179;51.748;8.728;2023-02-11T23:40:24;7.60;98.30
12233;DHT22;6179;51.748;8.728;2023-02-11T23:46:26;7.70;98.30
12233;DHT22;6179;51.748;8.728;2023-02-11T23:52:27;8.00;98.30
12233;DHT22;6179;51.748;8.728;2023-02-11T23:58:28;8.00;98.30
